createdAt,value
2022-07-31T04:17:26.725Z,100260.63
2022-07-31T04:20:02.335Z,100262.09
2022-07-31T04:22:37.476Z,100258.69
2022-07-31T04:25:19.998Z,100268.09
2022-07-31T04:28:19.012Z,100269.69
2022-07-31T04:30:46.318Z,100278.13
2022-07-31T04:33:12.964Z,100267.53
2022-07-31T04:35:40.536Z,100266.66
2022-07-31T04:38:07.416Z,100261.28
2022-07-31T04:40:36.843Z,100263.63
2022-07-31T04:43:04.432Z,100260.19
2022-07-31T04:45:31.650Z,100268.13
2022-07-31T04:47:58.163Z,100274.56
2022-07-31T04:50:24.800Z,100267.88
2022-07-31T04:53:01.739Z,100271.28
2022-07-31T04:55:33.561Z,100271.28
2022-07-31T04:58:00.316Z,100274.34
2022-07-31T05:00:26.985Z,100276.91
2022-07-31T05:02:53.750Z,100278.38
2022-07-31T05:05:21.185Z,100280.78
2022-07-31T05:07:47.718Z,100277.75
2022-07-31T05:10:38.311Z,100277.63
2022-07-31T05:13:05.243Z,100273.38
2022-07-31T05:15:33.421Z,100274.09
2022-07-31T05:18:00.279Z,100277.47
2022-07-31T05:20:38.724Z,100270.41
2022-07-31T05:23:21.280Z,100270.06
2022-07-31T05:26:15.811Z,100269.31
2022-07-31T05:28:42.932Z,100262.13
2022-07-31T05:31:10.328Z,100263.94
2022-07-31T05:33:37.953Z,100272.59
2022-07-31T05:36:05.087Z,100271.59
2022-07-31T05:38:32.224Z,100272.47
2022-07-31T05:41:19.267Z,100273.53
2022-07-31T05:44:20.868Z,100273.28
2022-07-31T05:46:47.696Z,100273.28
2022-07-31T05:49:14.677Z,100273.06
2022-07-31T05:51:43.754Z,100275.63
2022-07-31T05:54:10.749Z,100273.59
2022-07-31T05:56:55.767Z,100275.19
2022-07-31T05:59:32.235Z,100275.16
2022-07-31T06:01:58.823Z,100279.31
2022-07-31T06:04:26.904Z,100276.00
2022-07-31T06:06:53.378Z,100282.69
2022-07-31T06:09:19.955Z,100281.47
2022-07-31T06:11:47.100Z,100287.72
2022-07-31T06:14:13.676Z,100283.88
2022-07-31T06:17:06.937Z,100276.66
2022-07-31T06:19:35.465Z,100286.69
2022-07-31T06:22:02.155Z,100289.97
2022-07-31T06:24:30.411Z,100287.75
2022-07-31T06:27:01.226Z,100281.84
2022-07-31T06:29:42.061Z,100282.75
2022-07-31T06:32:11.493Z,100287.28
2022-07-31T06:34:38.546Z,100285.78
2022-07-31T06:37:06.187Z,100281.28
2022-07-31T06:39:54.605Z,100277.09
2022-07-31T06:42:45.242Z,100281.16
2022-07-31T06:45:25.256Z,100283.66
2022-07-31T06:48:19.814Z,100288.47
2022-07-31T06:50:54.256Z,100286.09
2022-07-31T06:53:36.555Z,100288.69
2022-07-31T06:56:03.268Z,100286.44
2022-07-31T06:58:31.894Z,100286.19
2022-07-31T07:00:58.443Z,100285.47
2022-07-31T07:03:25.047Z,100291.44
2022-07-31T07:05:52.489Z,100281.72
2022-07-31T07:08:19.055Z,100285.19
2022-07-31T07:10:48.686Z,100288.75
2022-07-31T07:13:45.033Z,100279.78
2022-07-31T07:16:15.045Z,100271.00
2022-07-31T07:18:42.911Z,100269.28
2022-07-31T07:21:09.518Z,100273.44
2022-07-31T07:23:36.140Z,100271.00
2022-07-31T07:26:27.878Z,100275.97
2022-07-31T07:28:54.468Z,100272.66
2022-07-31T07:31:21.121Z,100280.06
2022-07-31T07:33:48.930Z,100265.63
2022-07-31T07:36:22.834Z,100268.25
2022-07-31T07:39:00.806Z,100269.13
2022-07-31T07:41:29.888Z,100273.53
2022-07-31T07:43:56.450Z,100276.06
2022-07-31T07:46:26.436Z,100264.88
2022-07-31T07:48:59.222Z,100265.88
2022-07-31T07:51:35.298Z,100275.34
2022-07-31T07:54:21.039Z,100270.53
2022-07-31T07:56:47.558Z,100270.94
2022-07-31T07:59:43.215Z,100267.66
2022-07-31T08:02:44.764Z,100264.22
2022-07-31T08:05:13.641Z,100271.63
2022-07-31T08:07:41.884Z,100261.59
2022-07-31T08:10:23.748Z,100264.47
2022-07-31T08:12:54.851Z,100258.84
2022-07-31T08:15:29.780Z,100255.91
2022-07-31T08:18:14.940Z,100257.56
2022-07-31T08:20:41.671Z,100258.09
2022-07-31T08:23:08.174Z,100261.75
2022-07-31T08:25:34.937Z,100258.28
2022-07-31T08:28:03.146Z,100257.75
2022-07-31T08:30:32.294Z,100255.53
2022-07-31T08:32:59.543Z,100250.16
2022-07-31T08:35:50.739Z,100248.53
2022-07-31T08:38:19.639Z,100245.03
2022-07-31T08:41:21.215Z,100233.75
2022-07-31T08:44:02.030Z,100239.31
2022-07-31T08:46:36.226Z,100239.94
2022-07-31T08:49:04.037Z,100238.16
2022-07-31T08:52:01.018Z,100237.16
2022-07-31T08:54:53.458Z,100231.03
2022-07-31T08:57:20.514Z,100230.13
2022-07-31T08:59:49.057Z,100226.22
2022-07-31T09:02:15.832Z,100224.72
2022-07-31T09:05:01.837Z,100218.88
2022-07-31T09:07:28.417Z,100211.28
2022-07-31T09:09:54.945Z,100224.63
2022-07-31T09:12:33.842Z,100223.34
2022-07-31T09:15:05.120Z,100213.72
2022-07-31T09:17:36.331Z,100211.44
2022-07-31T09:20:08.163Z,100210.13
2022-07-31T09:22:34.904Z,100210.03
2022-07-31T09:25:12.028Z,100208.56
2022-07-31T09:27:39.461Z,100205.72
2022-07-31T09:30:07.485Z,100203.50
2022-07-31T09:32:52.454Z,100193.66
2022-07-31T09:35:47.022Z,100198.16
2022-07-31T09:38:13.867Z,100201.72
2022-07-31T09:41:53.350Z,100199.13
2022-07-31T09:44:10.457Z,100200.25
2022-07-31T09:46:41.971Z,100200.75
2022-07-31T09:49:09.134Z,100195.13
2022-07-31T09:51:48.977Z,100190.50
2022-07-31T09:54:30.404Z,100195.94
2022-07-31T09:57:11.331Z,100192.41
2022-07-31T09:59:40.976Z,100180.72
2022-07-31T10:02:08.891Z,100182.41
2022-07-31T10:04:39.210Z,100183.78
2022-07-31T10:07:10.022Z,100186.38
2022-07-31T10:10:03.055Z,100179.66
2022-07-31T10:13:03.190Z,100181.00
2022-07-31T10:15:33.034Z,100172.13
2022-07-31T10:18:35.731Z,100175.53
2022-07-31T10:21:27.714Z,100175.97
2022-07-31T10:24:15.021Z,100170.16
2022-07-31T10:27:00.715Z,100164.44
2022-07-31T10:29:32.978Z,100158.00
2022-07-31T10:32:02.579Z,100153.53
2022-07-31T10:34:35.581Z,100155.88
2022-07-31T10:37:31.648Z,100152.66
2022-07-31T10:40:45.529Z,100152.72
2022-07-31T10:43:35.757Z,100147.34
2022-07-31T10:46:28.739Z,100145.47
2022-07-31T10:49:13.994Z,100140.19
2022-07-31T10:51:58.612Z,100140.47
2022-07-31T10:54:45.011Z,100138.19
2022-07-31T10:57:56.554Z,100133.47
2022-07-31T11:00:33.929Z,100133.78
2022-07-31T11:03:21.657Z,100124.97
2022-07-31T11:06:07.538Z,100128.00
2022-07-31T11:08:54.486Z,100126.50
2022-07-31T11:11:39.690Z,100113.78
2022-07-31T11:14:33.315Z,100121.72
2022-07-31T11:18:23.781Z,100114.31
2022-07-31T11:20:31.973Z,100105.31
2022-07-31T11:23:04.180Z,100103.59
2022-07-31T11:25:34.019Z,100101.88
2022-07-31T11:28:23.479Z,100101.56
2022-07-31T11:30:52.437Z,100102.06
2022-07-31T11:33:43.774Z,100094.84
2022-07-31T11:36:24.538Z,100090.81
2022-07-31T11:38:52.775Z,100091.28
2022-07-31T11:41:23.263Z,100094.19
2022-07-31T11:43:51.789Z,100093.94
2022-07-31T11:46:26.502Z,100087.13
2022-07-31T11:48:54.530Z,100076.25
2022-07-31T11:51:21.856Z,100074.28
2022-07-31T11:53:51.168Z,100072.03
2022-07-31T11:56:25.541Z,100066.53
2022-07-31T11:58:55.189Z,100062.94
2022-07-31T12:01:27.733Z,100057.44
2022-07-31T12:03:55.739Z,100051.56
2022-07-31T12:06:22.829Z,100042.91
2022-07-31T12:08:50.350Z,100026.13
2022-07-31T12:11:19.132Z,100022.78
2022-07-31T12:13:47.935Z,100008.91
2022-07-31T12:16:16.004Z,100003.31
2022-07-31T12:18:50.565Z,99997.97
2022-07-31T12:21:19.789Z,100004.72
2022-07-31T12:23:47.835Z,100003.84
2022-07-31T12:26:31.334Z,100007.22
2022-07-31T12:29:09.122Z,100011.56
2022-07-31T12:31:47.774Z,100006.75
2022-07-31T12:34:40.658Z,99994.50
2022-07-31T12:37:21.816Z,99994.06
2022-07-31T12:40:00.750Z,99993.34
2022-07-31T12:42:36.287Z,99984.09
2022-07-31T12:45:18.493Z,99985.78
2022-07-31T12:47:52.307Z,99987.66
2022-07-31T12:50:24.091Z,99977.06
2022-07-31T12:52:51.473Z,99991.97
2022-07-31T12:55:33.114Z,99985.81
2022-07-31T12:58:00.149Z,99982.13
2022-07-31T13:00:28.631Z,99966.19
2022-07-31T13:02:57.377Z,99970.03
2022-07-31T13:05:24.592Z,99965.34
2022-07-31T13:07:51.614Z,99959.38
2022-07-31T13:10:24.646Z,99965.59
2022-07-31T13:12:52.402Z,99954.16
2022-07-31T13:15:22.507Z,99952.59
2022-07-31T13:17:52.835Z,99945.44
2022-07-31T13:20:19.687Z,99938.88
2022-07-31T13:22:46.512Z,99935.19
2022-07-31T13:25:13.667Z,99939.47
2022-07-31T13:27:41.482Z,99938.44
2022-07-31T13:30:09.113Z,99936.50
2022-07-31T13:32:35.750Z,99935.59
2022-07-31T13:35:27.094Z,99940.97
2022-07-31T13:37:55.636Z,99938.03
2022-07-31T13:40:40.822Z,99934.09
2022-07-31T13:43:07.549Z,99929.69
2022-07-31T13:45:34.066Z,99923.47
2022-07-31T13:48:06.862Z,99930.97
2022-07-31T13:50:37.315Z,99928.84
2022-07-31T13:53:04.744Z,99932.75
2022-07-31T13:55:31.569Z,99924.94
2022-07-31T13:57:59.662Z,99920.84
2022-07-31T14:00:28.970Z,99925.41
2022-07-31T14:02:57.129Z,99927.78
2022-07-31T14:05:26.740Z,99924.50
2022-07-31T14:08:29.763Z,99931.25
2022-07-31T14:10:51.192Z,99920.63
2022-07-31T14:13:19.223Z,99913.84
2022-07-31T14:15:46.809Z,99914.63
2022-07-31T14:18:13.484Z,99921.31
2022-07-31T14:20:40.234Z,99913.72
2022-07-31T14:23:08.214Z,99914.63
2022-07-31T14:25:39.352Z,99908.19
2022-07-31T14:28:07.643Z,99905.00
2022-07-31T14:30:34.175Z,99907.19
2022-07-31T14:33:01.759Z,99910.06
2022-07-31T14:35:28.661Z,99908.78
2022-07-31T14:37:55.215Z,99904.69
2022-07-31T14:40:22.314Z,99907.91
2022-07-31T14:42:48.830Z,99909.41
2022-07-31T14:45:27.014Z,99910.44
2022-07-31T14:47:55.166Z,99909.59
2022-07-31T14:50:22.529Z,99909.94
2022-07-31T14:52:49.088Z,99905.22
2022-07-31T14:55:15.608Z,99906.13
2022-07-31T14:57:42.303Z,99907.69
2022-07-31T15:00:13.204Z,99901.84
2022-07-31T15:02:43.908Z,99899.06
2022-07-31T15:06:41.161Z,99907.69
2022-07-31T15:07:59.200Z,99895.69
2022-07-31T15:10:25.859Z,99902.16
2022-07-31T15:12:52.395Z,99898.19
2022-07-31T15:15:19.057Z,99891.22
2022-07-31T15:17:45.736Z,99894.91
2022-07-31T15:20:12.806Z,99892.44
2022-07-31T15:22:39.336Z,99886.38
2022-07-31T15:25:06.432Z,99889.09
2022-07-31T15:27:33.009Z,99892.72
2022-07-31T15:30:06.174Z,99879.44
2022-07-31T15:32:37.969Z,99878.66
2022-07-31T15:35:06.900Z,99881.91
2022-07-31T15:37:35.932Z,99879.66
2022-07-31T15:40:07.066Z,99874.00
2022-07-31T15:42:38.225Z,99878.16
2022-07-31T15:45:14.019Z,99872.75
2022-07-31T15:47:41.343Z,99869.06
2022-07-31T15:50:09.943Z,99858.66
2022-07-31T15:52:36.956Z,99863.63
2022-07-31T15:55:05.337Z,99866.94
2022-07-31T15:57:32.048Z,99863.44
2022-07-31T15:59:58.614Z,99862.53
2022-07-31T16:02:25.495Z,99861.84
2022-07-31T16:04:55.584Z,99858.00
2022-07-31T16:08:28.540Z,99853.84
2022-07-31T16:10:17.928Z,99859.22
2022-07-31T16:12:48.777Z,99846.50
2022-07-31T16:15:17.029Z,99850.91
2022-07-31T16:17:44.535Z,99844.78
2022-07-31T16:20:15.219Z,99847.13
2022-07-31T16:22:58.280Z,99849.75
2022-07-31T16:25:26.266Z,99835.97
2022-07-31T16:27:53.069Z,99833.59
2022-07-31T16:30:19.859Z,99833.34
2022-07-31T16:32:46.466Z,99832.31
2022-07-31T16:35:13.184Z,99830.13
2022-07-31T16:37:50.928Z,99833.94
2022-07-31T16:40:28.214Z,99830.41
2022-07-31T16:43:00.986Z,99821.94
2022-07-31T16:45:28.899Z,99825.78
2022-07-31T16:47:55.373Z,99817.19
2022-07-31T16:50:22.088Z,99815.47
2022-07-31T16:52:52.652Z,99818.66
2022-07-31T16:55:21.805Z,99819.16
2022-07-31T16:58:11.165Z,99811.22
2022-07-31T17:00:39.254Z,99820.13
2022-07-31T17:03:05.992Z,99824.88
2022-07-31T17:05:32.526Z,99823.53
2022-07-31T17:07:59.343Z,99822.50
2022-07-31T17:10:27.011Z,99810.59
2022-07-31T17:12:53.905Z,99811.84
2022-07-31T17:15:20.716Z,99806.69
2022-07-31T17:17:47.329Z,99813.78
2022-07-31T17:20:13.887Z,99812.94
2022-07-31T17:22:41.790Z,99810.78
2022-07-31T17:25:10.099Z,99816.69
2022-07-31T17:27:36.642Z,99809.78
2022-07-31T17:30:04.163Z,99818.00
2022-07-31T17:32:32.328Z,99819.00
2022-07-31T17:34:58.900Z,99816.69
2022-07-31T17:37:25.496Z,99819.00
2022-07-31T17:39:58.186Z,99825.47
2022-07-31T17:42:26.287Z,99824.00
2022-07-31T17:44:55.643Z,99823.81
2022-07-31T17:47:25.744Z,99826.28
2022-07-31T17:49:53.436Z,99830.28
2022-07-31T17:52:21.012Z,99832.72
2022-07-31T17:54:47.995Z,99843.69
2022-07-31T17:57:14.533Z,99839.59
2022-07-31T17:59:42.445Z,99837.03
2022-07-31T18:02:09.872Z,99836.31
2022-07-31T18:04:37.757Z,99851.50
2022-07-31T18:07:06.388Z,99847.47
2022-07-31T18:09:33.728Z,99844.66
2022-07-31T18:12:00.414Z,99852.41
2022-07-31T18:14:27.173Z,99847.69
2022-07-31T18:16:53.966Z,99861.28
2022-07-31T18:19:23.851Z,99857.41
2022-07-31T18:21:51.936Z,99853.03
2022-07-31T18:24:20.028Z,99864.28
2022-07-31T18:26:46.845Z,99865.44
2022-07-31T18:29:13.708Z,99869.84
2022-07-31T18:31:40.323Z,99863.50
2022-07-31T18:34:07.637Z,99861.88
2022-07-31T18:36:35.294Z,99864.16
2022-07-31T18:39:03.669Z,99859.75
2022-07-31T18:41:31.197Z,99867.19
2022-07-31T18:43:58.357Z,99865.34
2022-07-31T18:46:25.567Z,99866.22
2022-07-31T18:48:56.643Z,99863.22
2022-07-31T18:51:45.602Z,99870.94
2022-07-31T18:54:12.686Z,99878.44
2022-07-31T18:56:39.250Z,99870.66
2022-07-31T18:59:09.026Z,99870.69
2022-07-31T19:01:35.878Z,99874.16
2022-07-31T19:04:02.805Z,99870.47
2022-07-31T19:06:29.716Z,99870.25
2022-07-31T19:08:57.107Z,99873.94
2022-07-31T19:11:24.295Z,99876.84
2022-07-31T19:13:50.865Z,99879.81
2022-07-31T19:16:17.880Z,99881.41
2022-07-31T19:18:44.958Z,99886.97
2022-07-31T19:21:23.435Z,99887.28
2022-07-31T19:23:58.523Z,99889.44
2022-07-31T19:26:25.080Z,99894.03
2022-07-31T19:28:51.696Z,99897.38
2022-07-31T19:31:18.492Z,99896.47
2022-07-31T19:33:45.078Z,99895.00
2022-07-31T19:36:12.338Z,99900.09
2022-07-31T19:38:40.814Z,99904.50
2022-07-31T19:41:16.753Z,99905.59
2022-07-31T19:43:44.869Z,99912.59
2022-07-31T19:46:12.927Z,99907.50
2022-07-31T19:48:42.074Z,99908.84
2022-07-31T19:51:10.269Z,99917.25
2022-07-31T19:53:37.439Z,99916.94
2022-07-31T19:56:06.087Z,99922.50
2022-07-31T19:58:34.929Z,99919.47
2022-07-31T20:01:02.602Z,99920.34
2022-07-31T20:03:29.644Z,99928.09
2022-07-31T20:05:56.734Z,99932.09
2022-07-31T20:08:23.609Z,99919.63
2022-07-31T20:10:50.407Z,99924.22
2022-07-31T20:13:18.619Z,99927.84
2022-07-31T20:15:52.178Z,99927.22
2022-07-31T20:18:28.020Z,99926.06
2022-07-31T20:20:57.120Z,99937.22
2022-07-31T20:23:24.479Z,99934.88
2022-07-31T20:25:52.284Z,99943.84
2022-07-31T20:28:18.887Z,99938.09
2022-07-31T20:30:45.400Z,99930.81
2022-07-31T20:33:13.234Z,99936.91
2022-07-31T20:35:48.483Z,99936.75
2022-07-31T20:38:17.390Z,99943.19
2022-07-31T20:40:51.175Z,99945.53
2022-07-31T20:43:19.757Z,99945.72
2022-07-31T20:45:47.438Z,99941.47
2022-07-31T20:48:14.827Z,99949.94
2022-07-31T20:50:41.808Z,99950.59
2022-07-31T20:53:09.699Z,99955.19
2022-07-31T20:55:36.323Z,99946.88
2022-07-31T20:58:02.925Z,99945.88
2022-07-31T21:00:32.544Z,99947.22
2022-07-31T21:02:59.076Z,99939.94
2022-07-31T21:05:29.343Z,99940.78
2022-07-31T21:07:56.641Z,99938.78
2022-07-31T21:10:28.095Z,99949.25
2022-07-31T21:12:55.933Z,99939.75
2022-07-31T21:15:41.937Z,99942.78
2022-07-31T21:18:09.180Z,99946.28
2022-07-31T21:20:50.726Z,99949.19
2022-07-31T21:23:21.980Z,99951.72
2022-07-31T21:25:49.164Z,99964.63
2022-07-31T21:28:16.020Z,99962.19
2022-07-31T21:30:42.690Z,99955.81
2022-07-31T21:33:10.103Z,99960.06
2022-07-31T21:35:39.826Z,99972.03
2022-07-31T21:38:10.284Z,99963.38
2022-07-31T21:40:38.835Z,99965.22
2022-07-31T21:43:05.837Z,99960.19
2022-07-31T21:45:45.677Z,99965.38
2022-07-31T21:48:21.636Z,99964.34
2022-07-31T21:50:48.318Z,99966.63
2022-07-31T21:53:14.822Z,99973.03
2022-07-31T21:55:41.385Z,99975.53
2022-07-31T21:58:09.084Z,99975.72
